Kilkenny, Ireland

1:05 AM IST on October 26, 2014 (GMT +0100)
Kilkenny | Change Station
CLOSE
Current Station
Personal Weather Station
Location: Kilkenny City, Co. Kilkenny
Elevation: 160 ft
Nearby Weather Stations

Elev 160 ft 52.66 °N, 7.25 °W | Updated 3 minutes ago

Mostly Cloudy
Mostly Cloudy
53.6 °F
Feels Like 53.6 °F
N
8.0
Wind Variable Wind from SW
Gusts 22.0 mph

Today
High -- | Low -- °F
--% Chance of Precip.
Yesterday
High -- | Low -- °F
Precip. -- in
7:14 AM 5:10 PM
Waxing Crescent, 5% visible
Pressure 29.89 in
Visibility 6.2 miles
Clouds Few 2500 ft
Mostly Cloudy 4000 ft
Mostly Cloudy 23000 ft
Dew Point 48 °F
Humidity 84%
Rainfall 0.00 in
Snow Depth Not available.
UV 0 out of 12
Pollen Not available.
Air Quality Not available.
Flu Activity Not available.
METAR EIME 252300Z 22019G29KT 9999 FEW025 BKN040 BKN230 11/08 Q1012

More Conditions Fewer Conditions

Pressure 29.89 in
Visibility 6.2 miles
Clouds Few 2500 ft
Mostly Cloudy 4000 ft
Mostly Cloudy 23000 ft
Dew Point 48 °F
Humidity 84%
Rainfall 0.00 in
Snow Depth Not available.
UV 0 out of 12
Pollen Not available.
Air Quality Not available.
Flu Activity Not available.
METAR EIME 252300Z 22019G29KT 9999 FEW025 BKN040 BKN230 11/08 Q1012

More Conditions Fewer Conditions

10-Day Weather Forecast

Almanac

Astronomy

Oct. 26, 2014 Rise Set
Actual Time 7:14 AM GMT 5:10 PM GMT
Civil Twilight 6:38 AM GMT 5:46 PM GMT
Nautical Twilight 5:58 AM GMT 6:26 PM GMT
Astronomical Twilight 5:19 AM GMT 7:05 PM GMT
Moon 10:53 AM GMT 7:56 PM GMT
Length of Visible Light 11h 07m
Length of Day
9h 56m
Tomorrow will be 3m 52s shorter.
Waxing Crescent, 5% of the Moon is Illuminated
Oct 25
Waxing Crescent
Oct 30
First Quarter
Nov 6
Full
Nov 14
Last Quarter
Nov 22
New

Yesterday's Extremes

Country Highs Country Lows

Community

WunderPhotos

Upload Photos

1,765,037 photos uploaded!

Nearby

Snow Depth

Not available.

Earthquake Activity

City Distance Mag. Time & Date
No recent earthquake activity has been reported nearby.
Minimum magnitude displayed is 2.5.

Coastal Water Temperatures

Place Temperature
No Stations Reporting

Nearby Weather Stations